createdAt,value
2018-04-11T00:00:16.663Z,100211.03
2018-04-11T00:01:19.995Z,100214.13
2018-04-11T00:02:23.336Z,100213.70
2018-04-11T00:03:27.537Z,100219.06
2018-04-11T00:04:30.875Z,100210.69
2018-04-11T00:05:34.195Z,100214.70
2018-04-11T00:06:37.575Z,100216.12
2018-04-11T00:07:40.907Z,100211.69
2018-04-11T00:08:44.245Z,100212.80
2018-04-11T00:09:47.607Z,100204.00
2018-04-11T00:10:50.967Z,100202.74
2018-04-11T00:11:54.347Z,100208.20
2018-04-11T00:12:57.662Z,100206.53
2018-04-11T00:14:01.014Z,100205.27
2018-04-11T00:15:04.411Z,100202.36
2018-04-11T00:16:07.769Z,100201.59
2018-04-11T00:17:11.109Z,100199.42
2018-04-11T00:18:14.501Z,100192.42
2018-04-11T00:19:17.863Z,100193.42
2018-04-11T00:20:21.421Z,100193.50
2018-04-11T00:21:24.862Z,100187.80
2018-04-11T00:22:28.167Z,100191.09
2018-04-11T00:23:31.482Z,100190.25
2018-04-11T00:24:34.845Z,100190.67
2018-04-11T00:25:38.177Z,100188.15
2018-04-11T00:26:41.502Z,100186.08
2018-04-11T00:27:44.872Z,100188.76
2018-04-11T00:28:48.197Z,100187.47
2018-04-11T00:29:51.563Z,100184.95
2018-04-11T00:30:54.863Z,100185.55
2018-04-11T00:31:58.209Z,100183.88
2018-04-11T00:33:01.606Z,100188.80
2018-04-11T00:34:04.985Z,100186.73
2018-04-11T00:35:08.403Z,100188.08
2018-04-11T00:36:11.768Z,100191.74
2018-04-11T00:37:15.141Z,100197.59
2018-04-11T00:38:18.516Z,100197.75
2018-04-11T00:39:21.895Z,100197.36
2018-04-11T00:40:25.288Z,100201.03
2018-04-11T00:41:28.624Z,100197.52
2018-04-11T00:42:31.994Z,100195.26
2018-04-11T00:43:35.352Z,100193.84
2018-04-11T00:44:38.662Z,100199.50
2018-04-11T00:45:42.477Z,100199.01
2018-04-11T00:46:45.774Z,100207.88
2018-04-11T00:47:49.099Z,100207.03
2018-04-11T00:48:52.511Z,100202.11
2018-04-11T00:49:55.868Z,100208.71
2018-04-11T00:50:59.258Z,100205.12
2018-04-11T00:52:02.670Z,100205.54
2018-04-11T00:53:17.684Z,100205.05
2018-04-11T00:54:20.994Z,100211.47
2018-04-11T00:55:24.347Z,100207.80
2018-04-11T00:56:27.734Z,100213.37
2018-04-11T00:57:31.054Z,100219.98
2018-04-11T00:58:34.388Z,100220.75
2018-04-11T00:59:37.769Z,100218.08
2018-04-11T01:00:41.125Z,100219.84
2018-04-11T01:01:44.534Z,100219.30
2018-04-11T01:02:47.879Z,100222.82
2018-04-11T01:03:51.219Z,100220.56
2018-04-11T01:04:54.762Z,100226.34
2018-04-11T01:05:58.088Z,100227.17
2018-04-11T01:07:01.433Z,100230.27
2018-04-11T01:08:04.808Z,100233.86
2018-04-11T01:09:08.130Z,100232.11
2018-04-11T01:10:11.442Z,100231.69
2018-04-11T01:11:14.767Z,100225.08
2018-04-11T01:12:18.146Z,100226.34
2018-04-11T01:13:21.471Z,100230.77
2018-04-11T01:14:24.863Z,100236.20
2018-04-11T01:15:28.195Z,100231.69
2018-04-11T01:16:31.498Z,100244.14
2018-04-11T01:17:35.053Z,100245.98
2018-04-11T01:18:38.374Z,100248.34
2018-04-11T01:19:41.746Z,100256.95
2018-04-11T01:20:45.121Z,100255.61
2018-04-11T01:21:48.427Z,100251.17
2018-04-11T01:22:51.775Z,100252.09
2018-04-11T01:23:55.086Z,100252.02
2018-04-11T01:24:58.447Z,100247.92
2018-04-11T01:26:01.826Z,100247.92
2018-04-11T01:27:05.180Z,100246.06
2018-04-11T01:28:08.519Z,100234.86
2018-04-11T01:29:11.912Z,100236.54
2018-04-11T01:30:15.267Z,100227.17
2018-04-11T01:31:18.666Z,100229.77
2018-04-11T01:32:21.987Z,100232.45
2018-04-11T01:33:25.362Z,100243.15
2018-04-11T01:34:28.696Z,100235.62
2018-04-11T01:35:32.041Z,100248.08
2018-04-11T01:36:35.515Z,100248.45
2018-04-11T01:37:38.859Z,100248.45
2018-04-11T01:38:42.189Z,100259.16
2018-04-11T01:39:45.505Z,100253.28
2018-04-11T01:40:48.836Z,100251.02
2018-04-11T01:41:52.210Z,100248.77
2018-04-11T01:42:55.527Z,100251.86
2018-04-11T01:43:58.887Z,100260.31
2018-04-11T01:45:02.258Z,100258.47
2018-04-11T01:46:05.585Z,100259.31
2018-04-11T01:47:08.961Z,100256.64
2018-04-11T01:48:12.280Z,100266.42
2018-04-11T01:49:15.650Z,100260.31
2018-04-11T01:50:18.973Z,100259.39
2018-04-11T01:51:22.359Z,100255.30
2018-04-11T01:52:26.079Z,100254.88
2018-04-11T01:53:30.184Z,100247.35
2018-04-11T01:54:33.600Z,100243.34
2018-04-11T01:55:36.962Z,100250.94
2018-04-11T01:56:40.342Z,100250.11
2018-04-11T01:57:43.747Z,100254.12
2018-04-11T01:58:47.118Z,100257.71
2018-04-11T01:59:50.494Z,100260.88
2018-04-11T02:00:53.815Z,100260.49
2018-04-11T02:01:57.167Z,100269.86
2018-04-11T02:03:00.588Z,100273.92
2018-04-11T02:04:03.937Z,100278.42
2018-04-11T02:05:07.416Z,100270.55
2018-04-11T02:06:10.851Z,100270.33
2018-04-11T02:07:14.182Z,100270.05
2018-04-11T02:08:17.591Z,100269.33
2018-04-11T02:09:21.116Z,100272.57
2018-04-11T02:10:24.439Z,100268.98
2018-04-11T02:11:28.152Z,100266.30
2018-04-11T02:12:33.599Z,100263.21
2018-04-11T02:13:36.989Z,100263.63
2018-04-11T02:14:40.979Z,100260.04
2018-04-11T02:15:44.369Z,100262.22
2018-04-11T02:16:47.694Z,100264.89
2018-04-11T02:17:51.148Z,100266.30
2018-04-11T02:18:54.509Z,100264.63
2018-04-11T02:19:57.869Z,100273.17
2018-04-11T02:21:01.353Z,100272.34
2018-04-11T02:22:04.770Z,100276.27
2018-04-11T02:23:08.144Z,100276.84
2018-04-11T02:24:12.498Z,100281.36
2018-04-11T02:25:15.842Z,100286.89
2018-04-11T02:26:19.185Z,100285.63
2018-04-11T02:27:22.512Z,100283.88
2018-04-11T02:28:25.839Z,100288.38
2018-04-11T02:29:29.147Z,100291.55
2018-04-11T02:30:32.481Z,100292.05
2018-04-11T02:31:35.831Z,100289.98
2018-04-11T02:32:39.231Z,100296.67
2018-04-11T02:33:42.562Z,100296.67
2018-04-11T02:34:45.933Z,100303.35
2018-04-11T02:35:49.232Z,100298.31
2018-04-11T02:36:52.560Z,100306.77
2018-04-11T02:37:55.905Z,100302.67
2018-04-11T02:38:59.228Z,100300.91
2018-04-11T02:40:02.555Z,100292.89
2018-04-11T02:41:05.916Z,100292.89
2018-04-11T02:42:09.243Z,100296.06
2018-04-11T02:43:12.592Z,100290.90
2018-04-11T02:44:15.911Z,100292.16
2018-04-11T02:45:19.235Z,100289.80
2018-04-11T02:46:22.556Z,100288.45
2018-04-11T02:47:25.966Z,100283.95
2018-04-11T02:48:29.283Z,100282.19
2018-04-11T02:49:32.621Z,100287.05
2018-04-11T02:50:35.984Z,100287.88
2018-04-11T02:51:39.306Z,100286.89
2018-04-11T02:52:42.647Z,100286.89
2018-04-11T02:53:45.971Z,100281.20
2018-04-11T02:54:49.286Z,100282.95
2018-04-11T02:55:52.597Z,100281.13
2018-04-11T02:56:55.922Z,100284.79
2018-04-11T02:57:59.386Z,100276.92
2018-04-11T02:59:02.775Z,100280.70
2018-04-11T03:00:06.126Z,100277.67
2018-04-11T03:01:09.471Z,100281.37
2018-04-11T03:02:12.810Z,100284.63
2018-04-11T03:03:16.204Z,100277.28
2018-04-11T03:04:19.536Z,100278.28
2018-04-11T03:05:22.884Z,100277.93
2018-04-11T03:06:26.200Z,100272.66
2018-04-11T03:07:29.524Z,100276.36
2018-04-11T03:08:32.908Z,100283.55
2018-04-11T03:09:36.277Z,100282.28
2018-04-11T03:10:39.620Z,100282.36
2018-04-11T03:11:42.947Z,100280.59
2018-04-11T03:12:46.301Z,100279.79
2018-04-11T03:13:49.650Z,100279.94
2018-04-11T03:14:53.017Z,100287.20
2018-04-11T03:15:56.342Z,100281.95
2018-04-11T03:16:59.684Z,100277.19
2018-04-11T03:18:02.994Z,100276.84
2018-04-11T03:19:06.359Z,100272.02
2018-04-11T03:20:09.683Z,100272.94
2018-04-11T03:21:13.202Z,100277.37
2018-04-11T03:22:16.585Z,100273.85
2018-04-11T03:23:19.930Z,100274.34
2018-04-11T03:24:23.285Z,100268.92
2018-04-11T03:25:26.632Z,100271.07
2018-04-11T03:26:29.987Z,100266.56
2018-04-11T03:27:33.310Z,100267.90
2018-04-11T03:28:36.696Z,100269.92
2018-04-11T03:29:40.022Z,100266.41
2018-04-11T03:30:43.337Z,100270.00
2018-04-11T03:31:46.715Z,100259.30
2018-04-11T03:32:50.084Z,100265.49
2018-04-11T03:33:53.450Z,100260.56
2018-04-11T03:34:56.858Z,100255.22
2018-04-11T03:36:00.223Z,100253.77
2018-04-11T03:37:03.552Z,100244.10
2018-04-11T03:38:07.006Z,100239.33
2018-04-11T03:39:10.327Z,100233.14
2018-04-11T03:40:13.665Z,100232.30
2018-04-11T03:41:16.975Z,100231.07
2018-04-11T03:42:20.301Z,100231.64
2018-04-11T03:43:23.699Z,100228.73
2018-04-11T03:44:27.054Z,100235.91
2018-04-11T03:45:30.419Z,100231.64
2018-04-11T03:46:33.777Z,100232.66
2018-04-11T03:47:37.243Z,100229.56
2018-04-11T03:48:40.622Z,100234.98
2018-04-11T03:49:43.935Z,100234.16
2018-04-11T03:50:47.454Z,100239.08
2018-04-11T03:51:50.793Z,100232.05
2018-04-11T03:52:54.338Z,100232.89
2018-04-11T03:53:57.675Z,100236.41
2018-04-11T03:55:01.082Z,100234.16
2018-04-11T03:56:04.425Z,100244.77
2018-04-11T03:57:07.758Z,100234.91
2018-04-11T03:58:11.060Z,100243.44
2018-04-11T03:59:14.385Z,100245.11
2018-04-11T04:00:17.738Z,100245.50
2018-04-11T04:01:21.110Z,100240.16
2018-04-11T04:02:24.594Z,100244.93
2018-04-11T04:03:27.971Z,100243.59
2018-04-11T04:04:31.454Z,100249.36
2018-04-11T04:05:38.490Z,100259.06
2018-04-11T04:06:42.045Z,100250.20
2018-04-11T04:07:45.584Z,100247.88
2018-04-11T04:08:48.948Z,100251.35
2018-04-11T04:09:52.275Z,100251.28
2018-04-11T04:10:55.591Z,100255.21
2018-04-11T04:11:58.929Z,100247.61
2018-04-11T04:13:02.352Z,100249.78
2018-04-11T04:14:17.356Z,100254.11
2018-04-11T04:15:32.306Z,100253.03
2018-04-11T04:16:47.367Z,100257.23
2018-04-11T04:18:02.558Z,100251.12
2018-04-11T04:20:46.077Z,100258.40
2018-04-11T04:21:49.659Z,100251.03
2018-04-11T04:22:53.083Z,100245.00
2018-04-11T04:23:56.555Z,100251.12
2018-04-11T04:24:59.890Z,100247.03
2018-04-11T04:26:03.303Z,100252.19
2018-04-11T04:27:06.771Z,100251.70
2018-04-11T04:28:10.146Z,100249.02
2018-04-11T04:29:13.492Z,100255.21
2018-04-11T04:30:16.880Z,100252.53
2018-04-11T04:31:20.191Z,100248.11
2018-04-11T04:32:23.505Z,100243.18
2018-04-11T04:33:26.826Z,100241.42
2018-04-11T04:34:30.203Z,100249.44
2018-04-11T04:35:33.610Z,100250.78
2018-04-11T04:36:36.980Z,100256.12
2018-04-11T04:37:40.360Z,100261.47
2018-04-11T04:38:43.717Z,100266.83
2018-04-11T04:39:47.047Z,100260.22
2018-04-11T04:40:50.475Z,100261.63
2018-04-11T04:41:53.939Z,100258.56
2018-04-11T04:42:57.272Z,100265.75
2018-04-11T04:44:00.609Z,100263.98
2018-04-11T04:45:03.975Z,100261.31
2018-04-11T04:46:07.348Z,100267.08
2018-04-11T04:47:10.693Z,100259.98
2018-04-11T04:48:14.097Z,100261.81
2018-04-11T04:49:17.443Z,100256.96
2018-04-11T04:50:20.781Z,100261.81
2018-04-11T04:51:24.142Z,100259.64
2018-04-11T04:52:27.447Z,100259.64
2018-04-11T04:53:30.766Z,100251.61
2018-04-11T04:54:34.088Z,100257.80
2018-04-11T04:55:37.431Z,100252.95
2018-04-11T04:56:40.807Z,100260.55
2018-04-11T04:57:44.163Z,100259.70
2018-04-11T04:58:47.486Z,100261.96
2018-04-11T04:59:50.833Z,100265.17
2018-04-11T05:00:54.201Z,100269.17
2018-04-11T05:01:57.583Z,100265.17
2018-04-11T05:03:00.968Z,100270.90
2018-04-11T05:04:04.335Z,100271.92
2018-04-11T05:05:07.655Z,100281.78
2018-04-11T05:06:11.028Z,100271.66
2018-04-11T05:07:14.320Z,100273.48
2018-04-11T05:08:17.654Z,100273.48
2018-04-11T05:09:22.715Z,100271.34
2018-04-11T05:10:26.146Z,100276.27
2018-04-11T05:11:29.606Z,100282.11
2018-04-11T05:12:32.932Z,100280.85
2018-04-11T05:13:36.340Z,100286.27
2018-04-11T05:14:39.691Z,100290.39
2018-04-11T05:15:43.117Z,100290.39
2018-04-11T05:16:46.543Z,100289.97
2018-04-11T05:17:49.897Z,100294.97
2018-04-11T05:18:53.362Z,100294.05
2018-04-11T05:19:56.737Z,100295.81
2018-04-11T05:21:00.104Z,100300.25
2018-04-11T05:22:03.604Z,100302.50
2018-04-11T05:23:07.491Z,100302.08
2018-04-11T05:24:10.876Z,100298.91
2018-04-11T05:25:14.256Z,100299.82
2018-04-11T05:26:17.575Z,100295.31
2018-04-11T05:27:21.881Z,100293.56
2018-04-11T05:28:25.229Z,100292.22
2018-04-11T05:29:29.403Z,100292.72
2018-04-11T05:30:32.698Z,100286.38
2018-04-11T05:31:36.034Z,100286.70
2018-04-11T05:32:39.493Z,100289.71
2018-04-11T05:33:42.858Z,100285.70
2018-04-11T05:34:46.215Z,100284.36
2018-04-11T05:35:49.591Z,100286.97
2018-04-11T05:36:52.943Z,100289.64
2018-04-11T05:37:56.310Z,100287.80
2018-04-11T05:38:59.633Z,100296.63
2018-04-11T05:40:03.018Z,100290.87
2018-04-11T05:41:06.402Z,100295.83
2018-04-11T05:42:09.749Z,100300.64
2018-04-11T05:43:13.159Z,100294.37
2018-04-11T05:44:16.483Z,100301.06
2018-04-11T05:45:19.824Z,100299.30
2018-04-11T05:46:23.224Z,100305.08
2018-04-11T05:47:26.606Z,100306.41
2018-04-11T05:48:29.953Z,100301.91
2018-04-11T05:49:33.317Z,100306.34
2018-04-11T05:50:36.893Z,100311.69
2018-04-11T05:51:40.256Z,100314.36
2018-04-11T05:52:43.586Z,100312.11
2018-04-11T05:53:47.055Z,100312.95
2018-04-11T05:54:50.484Z,100311.61
2018-04-11T05:55:53.804Z,100309.85
2018-04-11T05:56:57.159Z,100312.95
2018-04-11T05:58:00.480Z,100312.45
2018-04-11T05:59:03.874Z,100317.30
2018-04-11T06:00:07.223Z,100315.55
2018-04-11T06:01:10.599Z,100312.45
2018-04-11T06:02:14.009Z,100322.23
2018-04-11T06:03:17.439Z,100325.64
2018-04-11T06:04:20.774Z,100320.78
2018-04-11T06:05:24.211Z,100323.45
2018-04-11T06:06:27.552Z,100330.14
2018-04-11T06:07:30.858Z,100331.41
2018-04-11T06:08:34.392Z,100333.66
2018-04-11T06:09:37.811Z,100329.22
2018-04-11T06:10:41.148Z,100333.66
2018-04-11T06:11:44.470Z,100330.14
2018-04-11T06:12:47.883Z,100337.25
2018-04-11T06:13:51.268Z,100334.16
2018-04-11T06:14:54.640Z,100339.08
2018-04-11T06:15:57.989Z,100340.34
2018-04-11T06:17:01.420Z,100342.52
2018-04-11T06:18:04.713Z,100340.34
2018-04-11T06:19:08.066Z,100339.42
2018-04-11T06:20:11.486Z,100339.35
2018-04-11T06:21:15.999Z,100337.59
2018-04-11T06:22:19.395Z,100339.84
2018-04-11T06:23:22.770Z,100343.02
2018-04-11T06:24:26.216Z,100339.84
2018-04-11T06:25:30.259Z,100343.44
2018-04-11T06:26:34.155Z,100338.51
2018-04-11T06:27:37.542Z,100340.34
2018-04-11T06:28:40.930Z,100334.58
2018-04-11T06:29:44.333Z,100341.18
2018-04-11T06:30:47.743Z,100343.36
2018-04-11T06:31:51.160Z,100334.92
2018-04-11T06:32:54.467Z,100334.50
2018-04-11T06:33:57.802Z,100330.83
2018-04-11T06:35:01.259Z,100331.67
2018-04-11T06:36:04.568Z,100327.55
2018-04-11T06:37:07.949Z,100333.74
2018-04-11T06:38:11.293Z,100333.67
2018-04-11T06:39:14.615Z,100327.41
2018-04-11T06:40:17.940Z,100333.17
2018-04-11T06:41:21.444Z,100329.51
2018-04-11T06:42:24.824Z,100328.56
2018-04-11T06:43:28.223Z,100324.47
2018-04-11T06:44:31.518Z,100333.34
2018-04-11T06:45:34.863Z,100326.66
2018-04-11T06:46:38.269Z,100331.16
2018-04-11T06:47:41.738Z,100332.00
2018-04-11T06:48:45.066Z,100327.98
2018-04-11T06:49:48.450Z,100333.69
2018-04-11T06:50:51.812Z,100337.70
2018-04-11T06:51:55.222Z,100335.02
2018-04-11T06:52:58.610Z,100338.01
2018-04-11T06:54:01.959Z,100337.93
2018-04-11T06:55:05.320Z,100332.02
2018-04-11T06:56:08.639Z,100339.12
2018-04-11T06:57:11.978Z,100342.11
2018-04-11T06:58:15.322Z,100343.79
2018-04-11T06:59:18.678Z,100343.30
2018-04-11T07:00:22.029Z,100348.64
2018-04-11T07:01:25.409Z,100348.14
2018-04-11T07:02:28.794Z,100345.39
2018-04-11T07:03:32.120Z,100340.86
2018-04-11T07:04:35.444Z,100339.02
2018-04-11T07:05:38.868Z,100342.05
2018-04-11T07:06:42.226Z,100339.44
2018-04-11T07:07:45.683Z,100350.06
2018-04-11T07:08:49.078Z,100339.78
2018-04-11T07:09:52.530Z,100341.36
2018-04-11T07:10:55.979Z,100338.69
2018-04-11T07:11:59.285Z,100340.02
2018-04-11T07:13:02.672Z,100339.53
2018-04-11T07:14:06.084Z,100342.70
2018-04-11T07:15:09.488Z,100343.54
2018-04-11T07:16:12.861Z,100339.22
2018-04-11T07:17:16.223Z,100339.72
2018-04-11T07:18:19.712Z,100340.02
2018-04-11T07:19:23.038Z,100339.88
2018-04-11T07:20:26.448Z,100339.38
2018-04-11T07:21:29.860Z,100341.45
2018-04-11T07:22:33.460Z,100339.20
2018-04-11T07:23:36.812Z,100333.34
2018-04-11T07:24:40.175Z,100337.78
2018-04-11T07:25:43.619Z,100335.19
2018-04-11T07:26:47.060Z,100338.28
2018-04-11T07:27:50.454Z,100333.34
2018-04-11T07:28:53.896Z,100332.93
2018-04-11T07:29:57.218Z,100334.77
2018-04-11T07:31:00.696Z,100338.28
2018-04-11T07:32:04.139Z,100333.00
2018-04-11T07:33:07.544Z,100335.60
2018-04-11T07:34:10.912Z,100335.53
2018-04-11T07:35:14.324Z,100342.98
2018-04-11T07:36:17.731Z,100338.44
2018-04-11T07:37:21.151Z,100340.20
2018-04-11T07:38:24.513Z,100341.38
2018-04-11T07:39:27.858Z,100343.45
2018-04-11T07:40:31.224Z,100346.89
2018-04-11T07:41:34.701Z,100348.16
2018-04-11T07:42:38.086Z,100343.23
2018-04-11T07:43:41.466Z,100353.01
2018-04-11T07:44:44.814Z,100352.52
2018-04-11T07:45:48.188Z,100355.19
2018-04-11T07:46:51.533Z,100357.45
2018-04-11T07:47:54.924Z,100355.27
2018-04-11T07:48:58.272Z,100355.69
2018-04-11T07:50:01.668Z,100355.69
2018-04-11T07:51:05.032Z,100358.78
2018-04-11T07:52:08.429Z,100362.45
2018-04-11T07:53:11.875Z,100367.38
2018-04-11T07:54:15.335Z,100373.30
2018-04-11T07:55:18.677Z,100365.38
2018-04-11T07:56:22.058Z,100362.86
2018-04-11T07:57:25.387Z,100364.62
2018-04-11T07:58:28.744Z,100360.26
2018-04-11T07:59:32.179Z,100361.10
2018-04-11T08:00:35.547Z,100365.11
2018-04-11T08:01:38.862Z,100366.95
2018-04-11T08:02:42.325Z,100368.20
2018-04-11T08:03:45.684Z,100368.28
2018-04-11T08:04:49.053Z,100360.86
2018-04-11T08:05:52.392Z,100365.72
2018-04-11T08:06:55.756Z,100361.36
2018-04-11T08:07:59.109Z,100363.96
2018-04-11T08:09:02.528Z,100362.52
2018-04-11T08:10:05.913Z,100362.02
2018-04-11T08:11:09.266Z,100356.09
2018-04-11T08:12:12.669Z,100358.59
2018-04-11T08:13:16.104Z,100362.37
2018-04-11T08:14:19.441Z,100354.66
2018-04-11T08:15:22.779Z,100363.88
2018-04-11T08:16:26.246Z,100362.53
2018-04-11T08:17:29.574Z,100365.13
2018-04-11T08:18:32.942Z,100362.87
2018-04-11T08:19:36.252Z,100369.45
2018-04-11T08:20:39.689Z,100364.53
2018-04-11T08:21:43.103Z,100361.70
2018-04-11T08:22:46.702Z,100359.27
2018-04-11T08:23:49.528Z,100367.29
2018-04-11T08:24:53.010Z,100366.72
2018-04-11T08:25:56.359Z,100363.55
2018-04-11T08:26:59.756Z,100364.84
2018-04-11T08:28:03.176Z,100367.41
2018-04-11T08:29:06.514Z,100370.50
2018-04-11T08:30:09.923Z,100367.83
2018-04-11T08:31:13.347Z,100372.76
2018-04-11T08:32:16.734Z,100377.69
2018-04-11T08:33:20.091Z,100377.69
2018-04-11T08:34:23.410Z,100375.93
2018-04-11T08:35:26.791Z,100376.45
2018-04-11T08:36:30.278Z,100377.38
2018-04-11T08:37:33.677Z,100373.41
2018-04-11T08:38:37.075Z,100368.13
2018-04-11T08:39:40.395Z,100373.48
2018-04-11T08:40:43.789Z,100376.16
2018-04-11T08:41:47.526Z,100372.64
2018-04-11T08:42:51.091Z,100367.21
2018-04-11T08:43:54.169Z,100367.21
2018-04-11T08:44:57.668Z,100371.92
2018-04-11T08:46:02.255Z,100367.83
2018-04-11T08:47:05.374Z,100365.50
2018-04-11T08:48:08.468Z,100362.25
2018-04-11T08:49:11.591Z,100366.50
2018-04-11T08:50:15.825Z,100362.64
2018-04-11T08:51:20.438Z,100358.72
2018-04-11T08:52:26.376Z,100363.84
2018-04-11T08:53:29.509Z,100362.81
2018-04-11T08:54:32.575Z,100367.17
2018-04-11T08:55:35.631Z,100368.58
2018-04-11T08:56:38.735Z,100373.02
2018-04-11T08:57:41.864Z,100371.27
2018-04-11T08:58:45.003Z,100368.58
2018-04-11T08:59:48.311Z,100369.00
2018-04-11T09:00:51.420Z,100369.92
2018-04-11T09:01:54.475Z,100364.23
2018-04-11T09:02:57.752Z,100369.08
2018-04-11T09:04:01.119Z,100365.41
2018-04-11T09:05:04.409Z,100363.39
2018-04-11T09:06:07.619Z,100371.27
2018-04-11T09:07:10.753Z,100373.37
2018-04-11T09:08:14.833Z,100376.36
2018-04-11T09:09:18.010Z,100374.94
2018-04-11T09:10:21.114Z,100376.28
2018-04-11T09:11:26.888Z,100375.78
2018-04-11T09:12:30.043Z,100376.20
2018-04-11T09:13:33.225Z,100381.98
2018-04-11T09:14:37.439Z,100379.30
2018-04-11T09:15:40.524Z,100381.63
2018-04-11T09:16:44.792Z,100378.61
2018-04-11T09:17:48.569Z,100382.13
2018-04-11T09:18:51.747Z,100374.59
2018-04-11T09:19:54.867Z,100380.30
2018-04-11T09:20:57.938Z,100383.05
2018-04-11T09:22:01.008Z,100378.12
2018-04-11T09:23:04.343Z,100381.71
2018-04-11T09:24:07.527Z,100381.63
2018-04-11T09:25:10.659Z,100382.82
2018-04-11T09:26:14.050Z,100380.95
2018-04-11T09:27:17.493Z,100383.05
2018-04-11T09:28:20.644Z,100387.56
2018-04-11T09:29:23.727Z,100386.41
2018-04-11T09:30:26.960Z,100380.80
2018-04-11T09:31:29.999Z,100381.89
2018-04-11T09:32:33.500Z,100390.00
2018-04-11T09:33:36.678Z,100385.98
2018-04-11T09:34:39.862Z,100393.59
2018-04-11T09:35:43.543Z,100393.17
2018-04-11T09:36:48.414Z,100395.84
2018-04-11T09:37:51.519Z,100395.02
2018-04-11T09:38:57.418Z,100388.01
2018-04-11T09:40:01.667Z,100390.76
2018-04-11T09:41:04.782Z,100401.12
2018-04-11T09:42:08.440Z,100393.93
2018-04-11T09:43:11.504Z,100389.50
2018-04-11T09:44:17.725Z,100391.67
2018-04-11T09:45:20.778Z,100395.77
2018-04-11T09:46:33.559Z,100388.58
2018-04-11T09:47:36.623Z,100391.41
2018-04-11T09:48:39.742Z,100386.89
2018-04-11T09:49:42.814Z,100397.53
2018-04-11T09:50:46.039Z,100394.77
2018-04-11T09:51:49.183Z,100391.67
2018-04-11T09:52:52.350Z,100401.28
2018-04-11T09:53:55.391Z,100395.51
2018-04-11T09:54:58.614Z,100397.61
2018-04-11T09:56:01.753Z,100391.34
2018-04-11T09:57:04.887Z,100398.38
2018-04-11T09:58:07.971Z,100395.28
2018-04-11T09:59:12.163Z,100392.18
2018-04-11T10:00:16.238Z,100391.77
2018-04-11T10:01:21.186Z,100386.33
2018-04-11T10:02:24.356Z,100395.09
2018-04-11T10:03:27.479Z,100394.86
2018-04-11T10:04:30.639Z,100395.17
2018-04-11T10:05:33.785Z,100395.86
2018-04-11T10:06:36.868Z,100394.27
2018-04-11T10:07:40.001Z,100392.84
2018-04-11T10:08:43.621Z,100395.34
2018-04-11T10:09:46.712Z,100391.17
2018-04-11T10:10:50.207Z,100396.34
2018-04-11T10:12:10.241Z,100392.17
2018-04-11T10:13:13.378Z,100390.07
2018-04-11T10:14:24.250Z,100391.91
2018-04-11T10:15:27.297Z,100390.31
2018-04-11T10:16:30.419Z,100389.47
2018-04-11T10:17:33.495Z,100392.34
2018-04-11T10:18:36.653Z,100394.67
2018-04-11T10:19:39.825Z,100396.25
2018-04-11T10:20:42.967Z,100397.09
2018-04-11T10:21:46.029Z,100392.50
2018-04-11T10:22:50.589Z,100392.81
2018-04-11T10:23:54.307Z,100394.07
2018-04-11T10:24:57.447Z,100397.17
2018-04-11T10:26:00.543Z,100395.83
2018-04-11T10:27:03.700Z,100394.48
2018-04-11T10:28:06.777Z,100394.07
2018-04-11T10:29:10.395Z,100393.08
2018-04-11T10:30:18.189Z,100388.56
2018-04-11T10:31:21.844Z,100391.23
2018-04-11T10:32:26.091Z,100392.89
2018-04-11T10:33:29.141Z,100392.05
2018-04-11T10:34:33.443Z,100389.90
2018-04-11T10:35:36.536Z,100391.47
2018-04-11T10:36:39.630Z,100387.80
2018-04-11T10:37:42.747Z,100391.66
2018-04-11T10:38:45.879Z,100389.31
2018-04-11T10:39:49.830Z,100394.41
2018-04-11T10:40:52.998Z,100397.77
2018-04-11T10:41:56.064Z,100396.08
2018-04-11T10:42:59.144Z,100397.11
2018-04-11T10:44:02.359Z,100396.69
2018-04-11T10:45:05.489Z,100392.33
2018-04-11T10:46:08.690Z,100391.91
2018-04-11T10:47:11.737Z,100396.34
2018-04-11T10:48:14.835Z,100400.36
2018-04-11T10:49:17.897Z,100397.27
2018-04-11T10:50:21.832Z,100398.19
2018-04-11T10:51:25.107Z,100397.19
2018-04-11T10:52:28.144Z,100396.34
2018-04-11T10:53:31.435Z,100399.79
2018-04-11T10:54:34.627Z,100400.09
2018-04-11T10:55:37.821Z,100397.42
2018-04-11T10:56:43.313Z,100398.69
2018-04-11T10:57:46.386Z,100397.34
2018-04-11T10:58:49.436Z,100398.11
2018-04-11T10:59:52.573Z,100391.23
2018-04-11T11:00:55.740Z,100395.09
2018-04-11T11:01:59.584Z,100393.48
2018-04-11T11:03:02.658Z,100389.20
2018-04-11T11:04:05.757Z,100387.56
2018-04-11T11:05:08.796Z,100392.23
2018-04-11T11:06:12.976Z,100392.39
2018-04-11T11:07:16.100Z,100384.77
2018-04-11T11:08:19.218Z,100389.14
2018-04-11T11:09:22.375Z,100385.85
2018-04-11T11:10:25.417Z,100393.39
2018-04-11T11:11:28.513Z,100385.96
2018-04-11T11:12:31.868Z,100386.03
2018-04-11T11:13:35.815Z,100385.88
2018-04-11T11:14:38.869Z,100389.21
2018-04-11T11:15:41.927Z,100396.94
2018-04-11T11:16:45.128Z,100395.25
2018-04-11T11:17:48.188Z,100396.75
2018-04-11T11:18:51.256Z,100395.91
2018-04-11T11:20:02.768Z,100395.59
2018-04-11T11:21:05.998Z,100391.81
2018-04-11T11:22:09.096Z,100393.26
2018-04-11T11:23:12.139Z,100393.33
2018-04-11T11:24:15.319Z,100394.25
2018-04-11T11:25:18.434Z,100394.33
2018-04-11T11:26:21.583Z,100395.17
2018-04-11T11:27:24.680Z,100396.09
2018-04-11T11:28:28.087Z,100395.52
2018-04-11T11:29:36.599Z,100384.62
2018-04-11T11:30:40.284Z,100384.04
2018-04-11T11:31:43.367Z,100387.30
2018-04-11T11:32:46.521Z,100387.80
2018-04-11T11:33:49.666Z,100386.95
2018-04-11T11:34:55.227Z,100386.03
2018-04-11T11:35:59.297Z,100383.33
2018-04-11T11:37:03.358Z,100384.16
2018-04-11T11:38:06.632Z,100380.98
2018-04-11T11:39:09.660Z,100386.92
2018-04-11T11:40:14.391Z,100380.88
2018-04-11T11:41:18.021Z,100382.55
2018-04-11T11:42:21.671Z,100381.22
2018-04-11T11:43:24.818Z,100384.31
2018-04-11T11:44:27.921Z,100382.86
2018-04-11T11:45:31.908Z,100378.84
2018-04-11T11:46:35.864Z,100386.57
2018-04-11T11:47:39.150Z,100381.88
2018-04-11T11:50:01.914Z,100382.56
2018-04-11T11:51:05.059Z,100379.88
2018-04-11T11:52:08.152Z,100384.09
2018-04-11T11:53:11.269Z,100384.25
2018-04-11T11:54:14.380Z,100383.09
2018-04-11T11:55:17.572Z,100381.91
2018-04-11T11:56:20.599Z,100379.84
2018-04-11T11:57:23.716Z,100380.84
2018-04-11T11:58:26.781Z,100381.34
2018-04-11T11:59:29.994Z,100377.31
2018-04-11T12:00:33.087Z,100378.23
2018-04-11T12:01:36.160Z,100376.82
2018-04-11T12:02:39.194Z,100375.98
2018-04-11T12:03:42.243Z,100381.75
2018-04-11T12:04:45.706Z,100378.23
2018-04-11T12:05:48.814Z,100381.26
2018-04-11T12:06:51.878Z,100379.92
2018-04-11T12:07:54.984Z,100376.66